sensor_id;sensor_type;location;lat;lon;timestamp;P1;durP1;ratioP1;P2;durP2;ratioP2
59830;SDS011;45711;50.108;13.712;2023-12-20T00:01:08;5.13;;;2.75;;
59830;SDS011;45711;50.108;13.712;2023-12-20T00:03:34;4.90;;;2.90;;
59830;SDS011;45711;50.108;13.712;2023-12-20T00:06:00;3.78;;;2.60;;
59830;SDS011;45711;50.108;13.712;2023-12-20T00:08:25;4.40;;;2.90;;
59830;SDS011;45711;50.108;13.712;2023-12-20T00:10:52;4.13;;;2.67;;
59830;SDS011;45711;50.108;13.712;2023-12-20T00:13:18;5.32;;;3.13;;
59830;SDS011;45711;50.108;13.712;2023-12-20T00:15:44;4.45;;;3.15;;
59830;SDS011;45711;50.108;13.712;2023-12-20T00:18:09;4.45;;;2.97;;
59830;SDS011;45711;50.108;13.712;2023-12-20T00:20:35;4.95;;;2.78;;
59830;SDS011;45711;50.108;13.712;2023-12-20T00:23:01;4.72;;;2.60;;
59830;SDS011;45711;50.108;13.712;2023-12-20T00:25:28;4.32;;;2.97;;
59830;SDS011;45711;50.108;13.712;2023-12-20T00:27:55;5.82;;;2.75;;
59830;SDS011;45711;50.108;13.712;2023-12-20T00:30:21;7.60;;;3.00;;
59830;SDS011;45711;50.108;13.712;2023-12-20T00:32:46;3.40;;;2.38;;
59830;SDS011;45711;50.108;13.712;2023-12-20T00:35:12;7.07;;;3.03;;
59830;SDS011;45711;50.108;13.712;2023-12-20T00:37:38;4.70;;;3.05;;
59830;SDS011;45711;50.108;13.712;2023-12-20T00:40:04;4.45;;;3.05;;
59830;SDS011;45711;50.108;13.712;2023-12-20T00:42:33;4.25;;;2.67;;
59830;SDS011;45711;50.108;13.712;2023-12-20T00:45:00;4.85;;;3.03;;
59830;SDS011;45711;50.108;13.712;2023-12-20T00:47:26;4.97;;;3.33;;
59830;SDS011;45711;50.108;13.712;2023-12-20T00:49:51;3.83;;;2.70;;
59830;SDS011;45711;50.108;13.712;2023-12-20T00:52:17;5.65;;;3.15;;
59830;SDS011;45711;50.108;13.712;2023-12-20T00:54:43;3.78;;;2.88;;
59830;SDS011;45711;50.108;13.712;2023-12-20T00:57:09;4.78;;;3.20;;
59830;SDS011;45711;50.108;13.712;2023-12-20T00:59:35;5.88;;;3.53;;
59830;SDS011;45711;50.108;13.712;2023-12-20T01:02:02;4.18;;;2.85;;
59830;SDS011;45711;50.108;13.712;2023-12-20T01:04:28;5.68;;;3.15;;
59830;SDS011;45711;50.108;13.712;2023-12-20T01:06:54;3.20;;;2.53;;
59830;SDS011;45711;50.108;13.712;2023-12-20T01:09:19;4.68;;;3.30;;
59830;SDS011;45711;50.108;13.712;2023-12-20T01:11:48;6.88;;;3.80;;
59830;SDS011;45711;50.108;13.712;2023-12-20T01:14:13;5.00;;;2.85;;
59830;SDS011;45711;50.108;13.712;2023-12-20T01:16:39;4.57;;;2.85;;
59830;SDS011;45711;50.108;13.712;2023-12-20T01:19:06;5.53;;;3.38;;
59830;SDS011;45711;50.108;13.712;2023-12-20T01:21:32;4.30;;;2.92;;
59830;SDS011;45711;50.108;13.712;2023-12-20T01:23:57;4.45;;;2.67;;
59830;SDS011;45711;50.108;13.712;2023-12-20T01:26:23;5.63;;;3.38;;
59830;SDS011;45711;50.108;13.712;2023-12-20T01:28:49;4.05;;;3.13;;
59830;SDS011;45711;50.108;13.712;2023-12-20T01:31:15;4.35;;;2.90;;
59830;SDS011;45711;50.108;13.712;2023-12-20T01:33:40;5.18;;;3.28;;
59830;SDS011;45711;50.108;13.712;2023-12-20T01:36:07;4.30;;;3.22;;
59830;SDS011;45711;50.108;13.712;2023-12-20T01:38:34;4.03;;;2.88;;
59830;SDS011;45711;50.108;13.712;2023-12-20T01:40:59;5.22;;;3.10;;
59830;SDS011;45711;50.108;13.712;2023-12-20T01:43:25;4.72;;;3.35;;
59830;SDS011;45711;50.108;13.712;2023-12-20T01:45:51;4.88;;;2.95;;
59830;SDS011;45711;50.108;13.712;2023-12-20T01:48:17;4.75;;;2.88;;
59830;SDS011;45711;50.108;13.712;2023-12-20T01:50:45;6.47;;;3.00;;
59830;SDS011;45711;50.108;13.712;2023-12-20T01:53:12;4.85;;;3.08;;
59830;SDS011;45711;50.108;13.712;2023-12-20T01:55:39;3.90;;;2.83;;
59830;SDS011;45711;50.108;13.712;2023-12-20T01:58:05;6.88;;;2.95;;
59830;SDS011;45711;50.108;13.712;2023-12-20T02:00:32;3.47;;;2.45;;
59830;SDS011;45711;50.108;13.712;2023-12-20T02:02:59;5.10;;;2.80;;
59830;SDS011;45711;50.108;13.712;2023-12-20T02:05:27;5.88;;;3.00;;
59830;SDS011;45711;50.108;13.712;2023-12-20T02:07:54;4.47;;;2.97;;
59830;SDS011;45711;50.108;13.712;2023-12-20T02:10:21;7.03;;;2.97;;
59830;SDS011;45711;50.108;13.712;2023-12-20T02:12:46;4.75;;;3.00;;
59830;SDS011;45711;50.108;13.712;2023-12-20T02:15:12;3.17;;;2.42;;
59830;SDS011;45711;50.108;13.712;2023-12-20T02:17:38;4.60;;;2.88;;
59830;SDS011;45711;50.108;13.712;2023-12-20T02:20:05;4.78;;;3.08;;
59830;SDS011;45711;50.108;13.712;2023-12-20T02:22:33;3.90;;;2.42;;
59830;SDS011;45711;50.108;13.712;2023-12-20T02:24:58;3.72;;;2.38;;
59830;SDS011;45711;50.108;13.712;2023-12-20T02:27:24;2.95;;;2.10;;
59830;SDS011;45711;50.108;13.712;2023-12-20T02:29:50;2.65;;;2.20;;
59830;SDS011;45711;50.108;13.712;2023-12-20T02:32:16;4.13;;;2.90;;
59830;SDS011;45711;50.108;13.712;2023-12-20T02:34:43;3.65;;;2.38;;
59830;SDS011;45711;50.108;13.712;2023-12-20T02:37:09;3.55;;;2.22;;
59830;SDS011;45711;50.108;13.712;2023-12-20T02:39:36;4.43;;;2.72;;
59830;SDS011;45711;50.108;13.712;2023-12-20T02:42:02;3.35;;;2.30;;
59830;SDS011;45711;50.108;13.712;2023-12-20T02:44:28;3.05;;;2.35;;
59830;SDS011;45711;50.108;13.712;2023-12-20T02:46:53;5.45;;;2.70;;
59830;SDS011;45711;50.108;13.712;2023-12-20T02:49:19;4.32;;;2.80;;
59830;SDS011;45711;50.108;13.712;2023-12-20T02:51:44;4.32;;;2.85;;
59830;SDS011;45711;50.108;13.712;2023-12-20T02:54:11;5.45;;;3.00;;
59830;SDS011;45711;50.108;13.712;2023-12-20T02:56:38;4.30;;;2.95;;
59830;SDS011;45711;50.108;13.712;2023-12-20T02:59:04;5.50;;;2.67;;
59830;SDS011;45711;50.108;13.712;2023-12-20T03:01:31;5.78;;;2.70;;
59830;SDS011;45711;50.108;13.712;2023-12-20T03:03:56;4.95;;;2.63;;
59830;SDS011;45711;50.108;13.712;2023-12-20T03:06:22;4.60;;;3.17;;
59830;SDS011;45711;50.108;13.712;2023-12-20T03:08:48;6.13;;;3.72;;
59830;SDS011;45711;50.108;13.712;2023-12-20T03:11:13;3.70;;;2.97;;
59830;SDS011;45711;50.108;13.712;2023-12-20T03:13:40;5.05;;;2.92;;
59830;SDS011;45711;50.108;13.712;2023-12-20T03:16:08;4.22;;;3.03;;
59830;SDS011;45711;50.108;13.712;2023-12-20T03:18:34;5.50;;;3.22;;
59830;SDS011;45711;50.108;13.712;2023-12-20T03:20:59;4.97;;;3.17;;
59830;SDS011;45711;50.108;13.712;2023-12-20T03:23:25;4.72;;;3.10;;
59830;SDS011;45711;50.108;13.712;2023-12-20T03:25:52;5.90;;;3.05;;
59830;SDS011;45711;50.108;13.712;2023-12-20T03:28:17;4.20;;;2.90;;
59830;SDS011;45711;50.108;13.712;2023-12-20T03:30:45;4.43;;;2.75;;
59830;SDS011;45711;50.108;13.712;2023-12-20T03:33:11;3.88;;;2.70;;
59830;SDS011;45711;50.108;13.712;2023-12-20T03:35:36;5.30;;;3.13;;
59830;SDS011;45711;50.108;13.712;2023-12-20T03:38:02;4.82;;;2.70;;
59830;SDS011;45711;50.108;13.712;2023-12-20T03:40:28;4.88;;;3.25;;
59830;SDS011;45711;50.108;13.712;2023-12-20T03:42:54;3.72;;;2.90;;
59830;SDS011;45711;50.108;13.712;2023-12-20T03:45:19;4.53;;;2.78;;
59830;SDS011;45711;50.108;13.712;2023-12-20T03:47:46;5.68;;;2.85;;
59830;SDS011;45711;50.108;13.712;2023-12-20T03:50:12;5.72;;;2.90;;
59830;SDS011;45711;50.108;13.712;2023-12-20T03:52:38;4.10;;;2.70;;
59830;SDS011;45711;50.108;13.712;2023-12-20T03:55:04;4.47;;;2.97;;
59830;SDS011;45711;50.108;13.712;2023-12-20T03:57:31;7.75;;;3.00;;
59830;SDS011;45711;50.108;13.712;2023-12-20T03:59:56;4.53;;;2.60;;
59830;SDS011;45711;50.108;13.712;2023-12-20T04:02:22;4.25;;;2.83;;
59830;SDS011;45711;50.108;13.712;2023-12-20T04:04:49;9.68;;;2.88;;
59830;SDS011;45711;50.108;13.712;2023-12-20T04:07:15;3.65;;;2.40;;
59830;SDS011;45711;50.108;13.712;2023-12-20T04:09:40;4.47;;;2.60;;
59830;SDS011;45711;50.108;13.712;2023-12-20T04:12:06;4.15;;;3.00;;
59830;SDS011;45711;50.108;13.712;2023-12-20T04:14:32;3.22;;;2.40;;
59830;SDS011;45711;50.108;13.712;2023-12-20T04:16:58;4.93;;;2.70;;
59830;SDS011;45711;50.108;13.712;2023-12-20T04:19:23;4.43;;;2.38;;
59830;SDS011;45711;50.108;13.712;2023-12-20T04:21:50;2.70;;;2.22;;
59830;SDS011;45711;50.108;13.712;2023-12-20T04:24:16;4.95;;;2.30;;
59830;SDS011;45711;50.108;13.712;2023-12-20T04:26:42;2.20;;;1.58;;
59830;SDS011;45711;50.108;13.712;2023-12-20T04:29:07;1.95;;;1.60;;
59830;SDS011;45711;50.108;13.712;2023-12-20T04:31:33;2.17;;;1.30;;
59830;SDS011;45711;50.108;13.712;2023-12-20T04:33:59;2.92;;;1.98;;
59830;SDS011;45711;50.108;13.712;2023-12-20T04:36:24;2.90;;;1.58;;
59830;SDS011;45711;50.108;13.712;2023-12-20T04:38:56;1.98;;;1.45;;
59830;SDS011;45711;50.108;13.712;2023-12-20T04:41:22;2.40;;;1.45;;
59830;SDS011;45711;50.108;13.712;2023-12-20T04:43:47;1.98;;;1.60;;
59830;SDS011;45711;50.108;13.712;2023-12-20T04:46:13;2.42;;;1.67;;
59830;SDS011;45711;50.108;13.712;2023-12-20T04:48:38;2.17;;;1.70;;
59830;SDS011;45711;50.108;13.712;2023-12-20T04:51:04;1.45;;;1.10;;
59830;SDS011;45711;50.108;13.712;2023-12-20T04:53:31;1.52;;;1.20;;
59830;SDS011;45711;50.108;13.712;2023-12-20T04:55:58;2.95;;;1.88;;
59830;SDS011;45711;50.108;13.712;2023-12-20T04:58:23;7.63;;;1.70;;
59830;SDS011;45711;50.108;13.712;2023-12-20T05:00:49;1.75;;;1.08;;
59830;SDS011;45711;50.108;13.712;2023-12-20T05:03:17;2.15;;;1.27;;
59830;SDS011;45711;50.108;13.712;2023-12-20T05:05:43;1.38;;;1.10;;
59830;SDS011;45711;50.108;13.712;2023-12-20T05:08:08;2.38;;;1.63;;
59830;SDS011;45711;50.108;13.712;2023-12-20T05:10:34;1.48;;;0.98;;
59830;SDS011;45711;50.108;13.712;2023-12-20T05:16:00;1.63;;;0.80;;
59830;SDS011;45711;50.108;13.712;2023-12-20T05:18:29;1.88;;;1.48;;
59830;SDS011;45711;50.108;13.712;2023-12-20T05:20:54;3.50;;;1.42;;
59830;SDS011;45711;50.108;13.712;2023-12-20T05:23:20;3.28;;;1.27;;
59830;SDS011;45711;50.108;13.712;2023-12-20T05:25:46;1.58;;;1.20;;
59830;SDS011;45711;50.108;13.712;2023-12-20T05:28:11;1.10;;;0.90;;
59830;SDS011;45711;50.108;13.712;2023-12-20T05:30:38;0.80;;;0.80;;
59830;SDS011;45711;50.108;13.712;2023-12-20T05:33:04;0.55;;;0.50;;
59830;SDS011;45711;50.108;13.712;2023-12-20T05:35:29;1.33;;;0.98;;
59830;SDS011;45711;50.108;13.712;2023-12-20T05:37:55;1.05;;;0.65;;
59830;SDS011;45711;50.108;13.712;2023-12-20T05:40:21;1.20;;;0.73;;
59830;SDS011;45711;50.108;13.712;2023-12-20T05:42:46;0.98;;;0.70;;
59830;SDS011;45711;50.108;13.712;2023-12-20T05:45:14;1.13;;;0.80;;
59830;SDS011;45711;50.108;13.712;2023-12-20T05:47:44;1.58;;;0.73;;
59830;SDS011;45711;50.108;13.712;2023-12-20T05:50:10;1.30;;;0.90;;
59830;SDS011;45711;50.108;13.712;2023-12-20T05:52:35;0.90;;;0.60;;
59830;SDS011;45711;50.108;13.712;2023-12-20T05:55:03;1.42;;;0.80;;
59830;SDS011;45711;50.108;13.712;2023-12-20T05:57:29;1.23;;;0.77;;
59830;SDS011;45711;50.108;13.712;2023-12-20T05:59:55;0.90;;;0.60;;
59830;SDS011;45711;50.108;13.712;2023-12-20T06:02:24;1.00;;;0.80;;
59830;SDS011;45711;50.108;13.712;2023-12-20T06:04:50;1.08;;;0.77;;
59830;SDS011;45711;50.108;13.712;2023-12-20T06:07:16;1.30;;;0.57;;
59830;SDS011;45711;50.108;13.712;2023-12-20T06:09:42;2.28;;;0.70;;
59830;SDS011;45711;50.108;13.712;2023-12-20T06:12:08;0.50;;;0.50;;
59830;SDS011;45711;50.108;13.712;2023-12-20T06:14:33;0.77;;;0.50;;
59830;SDS011;45711;50.108;13.712;2023-12-20T06:16:59;1.20;;;0.60;;
59830;SDS011;45711;50.108;13.712;2023-12-20T06:19:26;1.58;;;0.60;;
59830;SDS011;45711;50.108;13.712;2023-12-20T06:21:53;1.88;;;0.70;;
59830;SDS011;45711;50.108;13.712;2023-12-20T06:24:19;0.73;;;0.60;;
59830;SDS011;45711;50.108;13.712;2023-12-20T06:26:44;0.98;;;0.60;;
59830;SDS011;45711;50.108;13.712;2023-12-20T06:29:10;1.73;;;0.50;;
59830;SDS011;45711;50.108;13.712;2023-12-20T06:31:35;0.93;;;0.60;;
59830;SDS011;45711;50.108;13.712;2023-12-20T06:34:01;0.55;;;0.50;;
59830;SDS011;45711;50.108;13.712;2023-12-20T06:36:27;0.52;;;0.40;;
59830;SDS011;45711;50.108;13.712;2023-12-20T06:38:54;0.52;;;0.50;;
59830;SDS011;45711;50.108;13.712;2023-12-20T06:41:24;0.52;;;0.45;;
59830;SDS011;45711;50.108;13.712;2023-12-20T06:43:52;1.13;;;0.50;;
59830;SDS011;45711;50.108;13.712;2023-12-20T06:46:19;1.27;;;0.40;;
59830;SDS011;45711;50.108;13.712;2023-12-20T06:48:45;0.90;;;0.57;;
59830;SDS011;45711;50.108;13.712;2023-12-20T06:51:11;0.63;;;0.40;;
59830;SDS011;45711;50.108;13.712;2023-12-20T06:53:39;0.85;;;0.60;;
59830;SDS011;45711;50.108;13.712;2023-12-20T06:56:06;0.68;;;0.50;;
59830;SDS011;45711;50.108;13.712;2023-12-20T06:58:32;2.00;;;0.50;;
59830;SDS011;45711;50.108;13.712;2023-12-20T07:00:58;0.73;;;0.45;;
59830;SDS011;45711;50.108;13.712;2023-12-20T07:03:23;0.82;;;0.45;;
59830;SDS011;45711;50.108;13.712;2023-12-20T07:05:49;0.50;;;0.50;;
59830;SDS011;45711;50.108;13.712;2023-12-20T07:08:15;2.88;;;0.57;;
59830;SDS011;45711;50.108;13.712;2023-12-20T07:10:40;0.50;;;0.50;;
59830;SDS011;45711;50.108;13.712;2023-12-20T07:13:08;1.25;;;0.60;;
59830;SDS011;45711;50.108;13.712;2023-12-20T07:15:34;1.00;;;0.70;;
59830;SDS011;45711;50.108;13.712;2023-12-20T07:18:00;0.82;;;0.60;;
59830;SDS011;45711;50.108;13.712;2023-12-20T07:20:26;0.47;;;0.40;;
59830;SDS011;45711;50.108;13.712;2023-12-20T07:22:52;0.60;;;0.40;;
59830;SDS011;45711;50.108;13.712;2023-12-20T07:25:17;5.63;;;0.55;;
59830;SDS011;45711;50.108;13.712;2023-12-20T07:27:43;0.70;;;0.40;;
59830;SDS011;45711;50.108;13.712;2023-12-20T07:30:11;1.75;;;0.70;;
59830;SDS011;45711;50.108;13.712;2023-12-20T07:32:37;1.08;;;0.70;;
59830;SDS011;45711;50.108;13.712;2023-12-20T07:35:03;0.88;;;0.60;;
59830;SDS011;45711;50.108;13.712;2023-12-20T07:37:29;0.73;;;0.70;;
59830;SDS011;45711;50.108;13.712;2023-12-20T07:39:54;1.25;;;0.80;;
59830;SDS011;45711;50.108;13.712;2023-12-20T07:42:20;3.05;;;1.30;;
59830;SDS011;45711;50.108;13.712;2023-12-20T07:44:47;0.98;;;0.60;;
59830;SDS011;45711;50.108;13.712;2023-12-20T07:47:14;0.55;;;0.50;;
59830;SDS011;45711;50.108;13.712;2023-12-20T07:49:42;2.40;;;0.90;;
59830;SDS011;45711;50.108;13.712;2023-12-20T07:52:07;0.75;;;0.52;;
59830;SDS011;45711;50.108;13.712;2023-12-20T07:54:33;1.25;;;0.70;;
59830;SDS011;45711;50.108;13.712;2023-12-20T07:56:59;1.30;;;0.70;;
59830;SDS011;45711;50.108;13.712;2023-12-20T07:59:25;0.70;;;0.60;;
59830;SDS011;45711;50.108;13.712;2023-12-20T08:01:50;1.83;;;0.60;;
59830;SDS011;45711;50.108;13.712;2023-12-20T08:04:18;1.20;;;0.60;;
59830;SDS011;45711;50.108;13.712;2023-12-20T08:06:43;3.33;;;0.80;;
59830;SDS011;45711;50.108;13.712;2023-12-20T08:09:11;0.63;;;0.45;;
59830;SDS011;45711;50.108;13.712;2023-12-20T08:11:40;0.82;;;0.60;;
59830;SDS011;45711;50.108;13.712;2023-12-20T08:14:10;0.80;;;0.40;;
59830;SDS011;45711;50.108;13.712;2023-12-20T08:16:37;0.38;;;0.32;;
59830;SDS011;45711;50.108;13.712;2023-12-20T08:19:09;1.02;;;0.40;;
59830;SDS011;45711;50.108;13.712;2023-12-20T08:21:37;1.10;;;0.65;;
59830;SDS011;45711;50.108;13.712;2023-12-20T08:24:03;0.40;;;0.40;;
59830;SDS011;45711;50.108;13.712;2023-12-20T08:26:29;0.30;;;0.30;;
59830;SDS011;45711;50.108;13.712;2023-12-20T08:28:55;1.13;;;0.50;;
59830;SDS011;45711;50.108;13.712;2023-12-20T08:31:20;0.60;;;0.47;;
59830;SDS011;45711;50.108;13.712;2023-12-20T08:33:49;0.85;;;0.60;;
59830;SDS011;45711;50.108;13.712;2023-12-20T08:36:21;0.43;;;0.30;;
59830;SDS011;45711;50.108;13.712;2023-12-20T08:38:55;0.38;;;0.30;;
59830;SDS011;45711;50.108;13.712;2023-12-20T08:41:25;2.40;;;0.65;;
59830;SDS011;45711;50.108;13.712;2023-12-20T08:43:51;0.60;;;0.38;;
59830;SDS011;45711;50.108;13.712;2023-12-20T08:46:19;0.50;;;0.32;;
59830;SDS011;45711;50.108;13.712;2023-12-20T08:48:46;0.70;;;0.40;;
59830;SDS011;45711;50.108;13.712;2023-12-20T08:51:12;0.40;;;0.40;;
59830;SDS011;45711;50.108;13.712;2023-12-20T08:53:38;0.70;;;0.50;;
59830;SDS011;45711;50.108;13.712;2023-12-20T08:58:57;0.75;;;0.40;;
59830;SDS011;45711;50.108;13.712;2023-12-20T09:01:23;0.98;;;0.38;;
59830;SDS011;45711;50.108;13.712;2023-12-20T09:03:49;0.95;;;0.60;;
59830;SDS011;45711;50.108;13.712;2023-12-20T09:06:18;0.80;;;0.47;;
59830;SDS011;45711;50.108;13.712;2023-12-20T09:08:44;1.13;;;0.50;;
59830;SDS011;45711;50.108;13.712;2023-12-20T09:11:10;1.40;;;0.50;;
59830;SDS011;45711;50.108;13.712;2023-12-20T09:13:38;0.68;;;0.47;;
59830;SDS011;45711;50.108;13.712;2023-12-20T09:16:08;0.65;;;0.50;;
59830;SDS011;45711;50.108;13.712;2023-12-20T09:18:35;1.00;;;0.45;;
59830;SDS011;45711;50.108;13.712;2023-12-20T09:21:03;0.90;;;0.60;;
59830;SDS011;45711;50.108;13.712;2023-12-20T09:23:29;1.25;;;0.70;;
59830;SDS011;45711;50.108;13.712;2023-12-20T09:25:54;8.32;;;1.33;;
59830;SDS011;45711;50.108;13.712;2023-12-20T09:28:22;2.15;;;0.93;;
59830;SDS011;45711;50.108;13.712;2023-12-20T09:30:49;1.55;;;0.70;;
59830;SDS011;45711;50.108;13.712;2023-12-20T09:33:15;3.28;;;1.23;;
59830;SDS011;45711;50.108;13.712;2023-12-20T09:35:41;3.67;;;1.30;;
59830;SDS011;45711;50.108;13.712;2023-12-20T09:38:07;2.58;;;1.30;;
59830;SDS011;45711;50.108;13.712;2023-12-20T09:40:33;2.08;;;1.00;;
59830;SDS011;45711;50.108;13.712;2023-12-20T09:43:03;1.45;;;0.80;;
59830;SDS011;45711;50.108;13.712;2023-12-20T09:45:29;1.10;;;0.80;;
59830;SDS011;45711;50.108;13.712;2023-12-20T09:47:57;1.83;;;0.90;;
59830;SDS011;45711;50.108;13.712;2023-12-20T09:50:23;1.08;;;0.63;;
59830;SDS011;45711;50.108;13.712;2023-12-20T09:52:49;1.20;;;0.75;;
59830;SDS011;45711;50.108;13.712;2023-12-20T09:55:17;1.27;;;0.70;;
59830;SDS011;45711;50.108;13.712;2023-12-20T09:57:45;1.92;;;0.90;;
59830;SDS011;45711;50.108;13.712;2023-12-20T10:00:11;1.08;;;0.70;;
59830;SDS011;45711;50.108;13.712;2023-12-20T10:02:38;1.10;;;0.70;;
59830;SDS011;45711;50.108;13.712;2023-12-20T10:05:12;1.13;;;0.75;;
59830;SDS011;45711;50.108;13.712;2023-12-20T10:07:44;1.33;;;0.63;;
59830;SDS011;45711;50.108;13.712;2023-12-20T10:10:09;1.35;;;0.60;;
59830;SDS011;45711;50.108;13.712;2023-12-20T10:12:37;2.65;;;0.73;;
59830;SDS011;45711;50.108;13.712;2023-12-20T10:15:03;1.25;;;0.73;;
59830;SDS011;45711;50.108;13.712;2023-12-20T10:17:30;1.75;;;0.70;;
59830;SDS011;45711;50.108;13.712;2023-12-20T10:19:56;1.48;;;0.60;;
59830;SDS011;45711;50.108;13.712;2023-12-20T10:22:24;1.15;;;0.47;;
59830;SDS011;45711;50.108;13.712;2023-12-20T10:24:50;0.90;;;0.63;;
59830;SDS011;45711;50.108;13.712;2023-12-20T10:27:16;0.88;;;0.70;;
59830;SDS011;45711;50.108;13.712;2023-12-20T10:29:44;1.27;;;0.73;;
59830;SDS011;45711;50.108;13.712;2023-12-20T10:32:23;1.65;;;0.60;;
59830;SDS011;45711;50.108;13.712;2023-12-20T10:34:49;1.20;;;0.60;;
59830;SDS011;45711;50.108;13.712;2023-12-20T10:37:26;2.17;;;0.93;;
59830;SDS011;45711;50.108;13.712;2023-12-20T10:39:53;4.63;;;0.63;;
59830;SDS011;45711;50.108;13.712;2023-12-20T10:42:22;1.13;;;0.63;;
59830;SDS011;45711;50.108;13.712;2023-12-20T10:44:51;1.38;;;0.70;;
59830;SDS011;45711;50.108;13.712;2023-12-20T10:47:20;1.45;;;0.60;;
59830;SDS011;45711;50.108;13.712;2023-12-20T10:49:50;1.08;;;0.70;;
59830;SDS011;45711;50.108;13.712;2023-12-20T10:52:17;2.17;;;1.30;;
59830;SDS011;45711;50.108;13.712;2023-12-20T10:57:43;0.85;;;0.50;;
59830;SDS011;45711;50.108;13.712;2023-12-20T11:00:16;1.00;;;0.60;;
59830;SDS011;45711;50.108;13.712;2023-12-20T11:02:43;1.95;;;0.70;;
59830;SDS011;45711;50.108;13.712;2023-12-20T11:05:10;1.55;;;0.60;;
59830;SDS011;45711;50.108;13.712;2023-12-20T11:07:50;1.90;;;1.00;;
59830;SDS011;45711;50.108;13.712;2023-12-20T11:10:25;0.95;;;0.73;;
59830;SDS011;45711;50.108;13.712;2023-12-20T11:12:57;2.22;;;1.10;;
59830;SDS011;45711;50.108;13.712;2023-12-20T11:15:29;0.80;;;0.80;;
59830;SDS011;45711;50.108;13.712;2023-12-20T11:17:58;1.48;;;0.90;;
59830;SDS011;45711;50.108;13.712;2023-12-20T11:20:35;1.05;;;0.77;;
59830;SDS011;45711;50.108;13.712;2023-12-20T11:23:02;3.25;;;0.90;;
59830;SDS011;45711;50.108;13.712;2023-12-20T11:25:29;2.60;;;1.23;;
59830;SDS011;45711;50.108;13.712;2023-12-20T11:28:08;1.60;;;1.10;;
59830;SDS011;45711;50.108;13.712;2023-12-20T11:30:41;1.10;;;0.90;;
59830;SDS011;45711;50.108;13.712;2023-12-20T11:33:15;1.00;;;0.80;;
59830;SDS011;45711;50.108;13.712;2023-12-20T11:35:55;2.53;;;0.70;;
59830;SDS011;45711;50.108;13.712;2023-12-20T11:38:21;1.80;;;0.90;;
59830;SDS011;45711;50.108;13.712;2023-12-20T11:40:56;2.60;;;1.30;;
59830;SDS011;45711;50.108;13.712;2023-12-20T11:43:31;1.60;;;1.00;;
59830;SDS011;45711;50.108;13.712;2023-12-20T11:46:04;1.63;;;1.10;;
59830;SDS011;45711;50.108;13.712;2023-12-20T11:48:41;1.25;;;1.02;;
59830;SDS011;45711;50.108;13.712;2023-12-20T11:51:14;1.98;;;0.98;;
59830;SDS011;45711;50.108;13.712;2023-12-20T11:53:42;1.70;;;1.23;;
59830;SDS011;45711;50.108;13.712;2023-12-20T11:56:24;8.23;;;1.25;;
59830;SDS011;45711;50.108;13.712;2023-12-20T11:58:54;2.33;;;1.10;;
59830;SDS011;45711;50.108;13.712;2023-12-20T12:01:21;1.67;;;1.17;;
59830;SDS011;45711;50.108;13.712;2023-12-20T12:04:01;3.65;;;1.20;;
59830;SDS011;45711;50.108;13.712;2023-12-20T12:06:39;4.70;;;1.30;;
59830;SDS011;45711;50.108;13.712;2023-12-20T12:09:05;1.63;;;0.80;;
59830;SDS011;45711;50.108;13.712;2023-12-20T12:11:43;2.38;;;1.00;;
59830;SDS011;45711;50.108;13.712;2023-12-20T12:14:09;3.33;;;1.20;;
59830;SDS011;45711;50.108;13.712;2023-12-20T12:16:35;1.13;;;0.75;;
59830;SDS011;45711;50.108;13.712;2023-12-20T12:19:14;2.85;;;1.10;;
59830;SDS011;45711;50.108;13.712;2023-12-20T12:21:45;1.65;;;1.00;;
59830;SDS011;45711;50.108;13.712;2023-12-20T12:24:11;3.03;;;1.00;;
59830;SDS011;45711;50.108;13.712;2023-12-20T12:26:39;0.90;;;0.57;;
59830;SDS011;45711;50.108;13.712;2023-12-20T12:29:06;1.70;;;0.98;;
59830;SDS011;45711;50.108;13.712;2023-12-20T12:31:32;4.88;;;1.10;;
59830;SDS011;45711;50.108;13.712;2023-12-20T12:33:58;1.98;;;1.02;;
59830;SDS011;45711;50.108;13.712;2023-12-20T12:36:24;3.55;;;0.90;;
59830;SDS011;45711;50.108;13.712;2023-12-20T12:38:56;1.63;;;0.77;;
59830;SDS011;45711;50.108;13.712;2023-12-20T12:41:32;2.53;;;0.85;;
59830;SDS011;45711;50.108;13.712;2023-12-20T12:43:59;1.08;;;0.70;;
59830;SDS011;45711;50.108;13.712;2023-12-20T12:46:28;0.93;;;0.80;;
59830;SDS011;45711;50.108;13.712;2023-12-20T12:48:57;1.73;;;0.95;;
59830;SDS011;45711;50.108;13.712;2023-12-20T12:51:27;1.98;;;0.80;;
59830;SDS011;45711;50.108;13.712;2023-12-20T12:53:52;2.40;;;0.95;;
59830;SDS011;45711;50.108;13.712;2023-12-20T12:56:18;1.60;;;0.80;;
59830;SDS011;45711;50.108;13.712;2023-12-20T12:58:47;1.65;;;1.00;;
59830;SDS011;45711;50.108;13.712;2023-12-20T13:01:14;1.77;;;0.70;;
59830;SDS011;45711;50.108;13.712;2023-12-20T13:03:40;1.75;;;1.05;;
59830;SDS011;45711;50.108;13.712;2023-12-20T13:06:06;1.63;;;0.80;;
59830;SDS011;45711;50.108;13.712;2023-12-20T13:08:33;5.32;;;0.95;;
59830;SDS011;45711;50.108;13.712;2023-12-20T13:10:59;3.60;;;1.00;;
59830;SDS011;45711;50.108;13.712;2023-12-20T13:13:26;1.40;;;0.85;;
59830;SDS011;45711;50.108;13.712;2023-12-20T13:15:51;3.05;;;1.20;;
59830;SDS011;45711;50.108;13.712;2023-12-20T13:18:21;1.42;;;1.00;;
59830;SDS011;45711;50.108;13.712;2023-12-20T13:20:47;1.50;;;0.80;;
59830;SDS011;45711;50.108;13.712;2023-12-20T13:23:13;1.25;;;0.70;;
59830;SDS011;45711;50.108;13.712;2023-12-20T13:25:39;0.95;;;0.80;;
59830;SDS011;45711;50.108;13.712;2023-12-20T13:28:05;1.30;;;0.80;;
59830;SDS011;45711;50.108;13.712;2023-12-20T13:30:31;2.30;;;0.93;;
59830;SDS011;45711;50.108;13.712;2023-12-20T13:32:56;2.22;;;1.10;;
59830;SDS011;45711;50.108;13.712;2023-12-20T13:35:24;2.15;;;0.70;;
59830;SDS011;45711;50.108;13.712;2023-12-20T13:37:49;0.93;;;0.70;;
59830;SDS011;45711;50.108;13.712;2023-12-20T13:40:15;2.58;;;1.00;;
59830;SDS011;45711;50.108;13.712;2023-12-20T13:42:41;1.33;;;0.82;;
59830;SDS011;45711;50.108;13.712;2023-12-20T13:45:07;2.72;;;1.10;;
59830;SDS011;45711;50.108;13.712;2023-12-20T13:47:35;3.53;;;1.15;;
59830;SDS011;45711;50.108;13.712;2023-12-20T13:50:01;3.45;;;1.10;;
59830;SDS011;45711;50.108;13.712;2023-12-20T13:52:29;2.45;;;0.95;;
59830;SDS011;45711;50.108;13.712;2023-12-20T13:55:01;3.60;;;1.13;;
59830;SDS011;45711;50.108;13.712;2023-12-20T13:57:30;2.40;;;0.90;;
59830;SDS011;45711;50.108;13.712;2023-12-20T13:59:59;2.33;;;0.90;;
59830;SDS011;45711;50.108;13.712;2023-12-20T14:02:27;4.07;;;0.80;;
59830;SDS011;45711;50.108;13.712;2023-12-20T14:04:54;1.90;;;0.70;;
59830;SDS011;45711;50.108;13.712;2023-12-20T14:07:25;2.55;;;1.05;;
59830;SDS011;45711;50.108;13.712;2023-12-20T14:09:58;2.15;;;0.70;;
59830;SDS011;45711;50.108;13.712;2023-12-20T14:12:27;1.88;;;0.80;;
59830;SDS011;45711;50.108;13.712;2023-12-20T14:15:06;6.30;;;1.17;;
59830;SDS011;45711;50.108;13.712;2023-12-20T14:17:45;2.47;;;0.93;;
59830;SDS011;45711;50.108;13.712;2023-12-20T14:20:18;2.35;;;0.88;;
59830;SDS011;45711;50.108;13.712;2023-12-20T14:23:21;2.00;;;1.00;;
59830;SDS011;45711;50.108;13.712;2023-12-20T14:25:49;1.75;;;0.98;;
59830;SDS011;45711;50.108;13.712;2023-12-20T14:28:15;2.70;;;0.90;;
59830;SDS011;45711;50.108;13.712;2023-12-20T14:31:09;2.35;;;1.17;;
59830;SDS011;45711;50.108;13.712;2023-12-20T14:34:01;2.88;;;0.90;;
59830;SDS011;45711;50.108;13.712;2023-12-20T14:40:06;3.10;;;0.82;;
59830;SDS011;45711;50.108;13.712;2023-12-20T14:48:49;3.60;;;0.80;;
59830;SDS011;45711;50.108;13.712;2023-12-20T14:52:02;5.18;;;1.30;;
59830;SDS011;45711;50.108;13.712;2023-12-20T14:55:01;3.08;;;0.93;;